createdAt,value
2019-05-30T00:01:37.928Z,100454.26
2019-05-30T00:04:13.181Z,100451.59
2019-05-30T00:06:40.933Z,100450.05
2019-05-30T00:09:08.688Z,100450.05
2019-05-30T00:11:36.558Z,100439.12
2019-05-30T00:14:04.940Z,100439.12
2019-05-30T00:16:36.192Z,100443.38
2019-05-30T00:19:04.937Z,100438.05
2019-05-30T00:21:32.962Z,100438.05
2019-05-30T00:24:02.076Z,100439.98
2019-05-30T00:26:30.921Z,100432.23
2019-05-30T00:28:58.689Z,100436.48
2019-05-30T00:31:26.463Z,100439.30
2019-05-30T00:33:55.494Z,100439.30
2019-05-30T00:36:31.040Z,100442.08
2019-05-30T00:38:59.747Z,100439.55
2019-05-30T00:41:27.551Z,100437.48
2019-05-30T00:43:55.904Z,100439.78
2019-05-30T00:46:23.725Z,100432.27
2019-05-30T00:48:51.588Z,100433.59
2019-05-30T00:51:19.314Z,100429.22
2019-05-30T00:53:46.981Z,100423.84
2019-05-30T00:56:14.757Z,100423.84
2019-05-30T00:58:42.510Z,100423.72
2019-05-30T01:01:10.274Z,100428.91
2019-05-30T01:03:38.396Z,100423.94
2019-05-30T01:06:07.268Z,100423.09
2019-05-30T01:08:36.486Z,100423.09
2019-05-30T01:11:05.281Z,100425.42
2019-05-30T01:13:33.294Z,100426.73
2019-05-30T01:16:01.104Z,100430.72
2019-05-30T01:18:28.629Z,100418.07
2019-05-30T01:21:01.416Z,100418.07
2019-05-30T01:23:29.068Z,100423.25
2019-05-30T01:25:57.335Z,100423.25
2019-05-30T01:28:27.365Z,100419.32
2019-05-30T01:31:01.451Z,100421.97
2019-05-30T01:33:27.073Z,100413.19
2019-05-30T01:35:54.782Z,100414.02
2019-05-30T01:38:22.526Z,100421.81
2019-05-30T01:40:50.081Z,100420.68
2019-05-30T01:43:17.941Z,100411.55
2019-05-30T01:45:45.706Z,100424.53
2019-05-30T01:48:13.484Z,100424.53
2019-05-30T01:50:41.175Z,100424.30
2019-05-30T01:53:08.984Z,100424.53
2019-05-30T01:55:36.652Z,100428.55
2019-05-30T01:58:05.099Z,100428.31
2019-05-30T02:00:32.890Z,100424.06
2019-05-30T02:03:00.784Z,100433.23
2019-05-30T02:05:28.516Z,100433.23
2019-05-30T02:07:56.702Z,100422.44
2019-05-30T02:10:24.367Z,100422.44
2019-05-30T02:12:52.118Z,100421.97
2019-05-30T02:15:19.780Z,100422.11
2019-05-30T02:17:47.545Z,100417.75
2019-05-30T02:20:15.206Z,100413.85
2019-05-30T02:22:42.847Z,100413.85
2019-05-30T02:25:10.657Z,100409.13
2019-05-30T02:27:41.610Z,100412.04
2019-05-30T02:30:12.347Z,100421.91
2019-05-30T02:32:38.964Z,100421.91
2019-05-30T02:35:07.754Z,100422.17
2019-05-30T02:37:38.343Z,100427.04
2019-05-30T02:40:09.920Z,100434.61
2019-05-30T02:42:36.588Z,100435.83
2019-05-30T02:45:06.140Z,100433.27
2019-05-30T02:47:34.972Z,100437.07
2019-05-30T02:50:04.437Z,100438.64
2019-05-30T02:52:32.156Z,100444.13
2019-05-30T02:55:01.876Z,100435.01
2019-05-30T02:57:30.261Z,100440.86
2019-05-30T02:59:58.193Z,100435.12
2019-05-30T03:02:28.190Z,100439.88
2019-05-30T03:04:58.515Z,100439.88
2019-05-30T03:07:26.501Z,100437.80
2019-05-30T03:09:54.373Z,100437.80
2019-05-30T03:12:22.547Z,100429.52
2019-05-30T03:14:50.319Z,100432.53
2019-05-30T03:17:18.174Z,100432.03
2019-05-30T03:19:46.047Z,100432.03
2019-05-30T03:22:14.079Z,100426.30
2019-05-30T03:24:41.975Z,100426.30
2019-05-30T03:27:11.665Z,100431.39
2019-05-30T03:29:39.628Z,100433.32
2019-05-30T03:32:54.335Z,100430.02
2019-05-30T03:34:36.940Z,100428.56
2019-05-30T03:37:08.696Z,100433.65
2019-05-30T03:39:37.265Z,100434.39
2019-05-30T03:42:07.042Z,100437.27
2019-05-30T03:44:34.745Z,100436.89
2019-05-30T03:47:03.875Z,100436.89
2019-05-30T03:49:31.941Z,100439.33
2019-05-30T03:52:00.185Z,100447.95
2019-05-30T03:54:27.962Z,100443.42
2019-05-30T03:56:55.834Z,100439.17
2019-05-30T03:59:26.273Z,100438.55
2019-05-30T04:01:56.598Z,100440.00
2019-05-30T04:04:24.437Z,100435.72
2019-05-30T04:06:52.301Z,100441.78
2019-05-30T04:09:24.190Z,100441.78
2019-05-30T04:11:49.484Z,100445.01
2019-05-30T04:14:19.197Z,100445.01
2019-05-30T04:16:46.829Z,100439.30
2019-05-30T04:19:15.637Z,100437.20
2019-05-30T04:21:44.199Z,100440.59
2019-05-30T04:24:14.535Z,100441.66
2019-05-30T04:26:43.830Z,100443.34
2019-05-30T04:29:12.240Z,100447.48
2019-05-30T04:31:40.798Z,100446.22
2019-05-30T04:34:09.914Z,100447.67
2019-05-30T04:36:37.671Z,100442.91
2019-05-30T04:39:06.655Z,100442.91
2019-05-30T04:41:36.156Z,100447.50
2019-05-30T04:44:03.960Z,100447.50
2019-05-30T04:46:31.774Z,100449.67
2019-05-30T04:48:59.538Z,100451.75
2019-05-30T04:51:27.415Z,100458.80
2019-05-30T04:53:55.294Z,100462.73
2019-05-30T04:56:23.037Z,100464.42
2019-05-30T04:58:50.868Z,100455.72
2019-05-30T05:01:20.255Z,100455.72
2019-05-30T05:03:48.590Z,100457.52
2019-05-30T05:06:17.856Z,100457.11
2019-05-30T05:08:46.363Z,100459.16
2019-05-30T05:11:18.274Z,100452.23
2019-05-30T05:13:43.731Z,100452.23
2019-05-30T05:16:22.958Z,100456.48
2019-05-30T05:18:41.124Z,100452.05
2019-05-30T05:21:11.101Z,100452.81
2019-05-30T05:23:38.832Z,100452.81
2019-05-30T05:26:06.600Z,100447.78
2019-05-30T05:28:34.426Z,100456.12
2019-05-30T05:31:02.449Z,100463.92
2019-05-30T05:33:30.361Z,100463.92
2019-05-30T05:35:58.228Z,100460.83
2019-05-30T05:38:26.096Z,100460.80
2019-05-30T05:40:53.961Z,100464.41
2019-05-30T05:43:22.482Z,100462.30
2019-05-30T05:45:50.910Z,100463.23
2019-05-30T05:48:18.803Z,100456.23
2019-05-30T05:50:46.647Z,100457.73
2019-05-30T05:53:14.510Z,100457.73
2019-05-30T05:55:42.388Z,100463.67
2019-05-30T05:58:10.146Z,100456.20
2019-05-30T06:00:37.952Z,100460.37
2019-05-30T06:03:05.980Z,100460.50
2019-05-30T06:05:52.199Z,100460.50
2019-05-30T06:08:08.335Z,100468.96
2019-05-30T06:10:36.146Z,100467.70
2019-05-30T06:13:04.015Z,100467.70
2019-05-30T06:15:32.273Z,100461.44
2019-05-30T06:18:00.037Z,100461.44
2019-05-30T06:20:27.844Z,100473.58
2019-05-30T06:22:55.686Z,100468.30
2019-05-30T06:25:31.816Z,100468.99
2019-05-30T06:27:55.949Z,100477.48
2019-05-30T06:30:24.490Z,100477.25
2019-05-30T06:32:52.281Z,100478.54
2019-05-30T06:35:21.394Z,100474.78
2019-05-30T06:37:49.281Z,100480.23
2019-05-30T06:40:19.464Z,100476.61
2019-05-30T06:42:46.599Z,100480.94
2019-05-30T06:45:14.491Z,100479.73
2019-05-30T06:47:45.066Z,100480.98
2019-05-30T06:50:25.025Z,100487.95
2019-05-30T06:52:52.816Z,100487.95
2019-05-30T06:55:23.163Z,100477.53
2019-05-30T06:57:51.276Z,100478.16
2019-05-30T07:00:19.471Z,100483.05
2019-05-30T07:02:50.250Z,100489.30
2019-05-30T07:05:19.918Z,100491.03
2019-05-30T07:07:48.037Z,100491.03
2019-05-30T07:10:16.075Z,100490.52
2019-05-30T07:12:43.933Z,100494.42
2019-05-30T07:15:14.052Z,100496.44
2019-05-30T07:17:48.463Z,100492.70
2019-05-30T07:20:16.346Z,100498.08
2019-05-30T07:22:44.197Z,100495.11
2019-05-30T07:25:12.503Z,100502.13
2019-05-30T07:27:40.381Z,100495.48
2019-05-30T07:30:08.306Z,100495.48
2019-05-30T07:32:36.085Z,100509.86
2019-05-30T07:35:07.180Z,100509.86
2019-05-30T07:37:34.364Z,100511.48
2019-05-30T07:40:02.083Z,100517.08
2019-05-30T07:42:30.763Z,100516.55
2019-05-30T07:44:58.515Z,100516.27
2019-05-30T07:47:26.203Z,100516.27
2019-05-30T07:49:54.661Z,100514.78
2019-05-30T07:52:22.977Z,100514.78
2019-05-30T07:54:52.112Z,100511.32
2019-05-30T07:57:19.908Z,100512.06
2019-05-30T07:59:47.579Z,100515.78
2019-05-30T08:02:15.342Z,100514.84
2019-05-30T08:04:46.630Z,100514.84
2019-05-30T08:07:12.606Z,100511.30
2019-05-30T08:09:40.830Z,100503.27
2019-05-30T08:12:09.174Z,100514.97
2019-05-30T08:14:39.876Z,100527.48
2019-05-30T08:17:07.717Z,100527.48
2019-05-30T08:19:38.160Z,100525.14
2019-05-30T08:22:06.001Z,100514.88
2019-05-30T08:24:34.508Z,100518.87
2019-05-30T08:27:02.215Z,100518.87
2019-05-30T08:29:30.139Z,100523.26
2019-05-30T08:31:57.909Z,100517.95
2019-05-30T08:34:25.596Z,100520.61
2019-05-30T08:36:53.406Z,100524.48
2019-05-30T08:39:21.544Z,100524.48
2019-05-30T08:41:49.294Z,100521.45
2019-05-30T08:44:18.423Z,100521.45
2019-05-30T08:46:46.378Z,100522.64
2019-05-30T08:49:15.768Z,100524.27
2019-05-30T08:51:46.084Z,100516.88
2019-05-30T08:54:14.182Z,100515.73
2019-05-30T08:56:42.025Z,100515.73
2019-05-30T08:59:09.756Z,100502.98
2019-05-30T09:01:37.781Z,100502.98
2019-05-30T09:04:05.622Z,100514.94
2019-05-30T09:06:39.929Z,100498.83
2019-05-30T09:09:07.736Z,100498.83
2019-05-30T09:11:35.907Z,100492.56
2019-05-30T09:14:05.003Z,100492.56
2019-05-30T09:16:32.704Z,100492.20
2019-05-30T09:19:06.774Z,100492.20
2019-05-30T09:21:36.836Z,100495.24
2019-05-30T09:24:06.631Z,100499.22
2019-05-30T09:26:35.540Z,100510.17
2019-05-30T09:29:06.266Z,100510.17
2019-05-30T09:31:33.946Z,100498.64
2019-05-30T09:34:01.674Z,100498.64
2019-05-30T09:36:29.465Z,100501.64
2019-05-30T09:38:57.152Z,100501.64
2019-05-30T09:41:24.925Z,100493.91
2019-05-30T09:43:52.653Z,100492.55
2019-05-30T09:46:22.956Z,100498.16
2019-05-30T09:48:51.808Z,100498.16
2019-05-30T09:51:21.909Z,100501.25
2019-05-30T09:53:50.468Z,100505.63
2019-05-30T09:56:24.845Z,100505.63
2019-05-30T09:58:58.378Z,100512.27
2019-05-30T10:04:09.392Z,100514.80
2019-05-30T10:06:37.508Z,100523.44
2019-05-30T10:09:06.620Z,100530.16
2019-05-30T10:11:34.454Z,100524.52
2019-05-30T10:14:02.279Z,100521.30
2019-05-30T10:16:32.366Z,100521.30
2019-05-30T10:19:00.102Z,100525.97
2019-05-30T10:21:30.164Z,100524.47
2019-05-30T10:24:05.016Z,100521.42
2019-05-30T10:26:35.699Z,100521.42
2019-05-30T10:29:03.454Z,100518.87
2019-05-30T10:31:31.634Z,100522.11
2019-05-30T10:33:59.387Z,100523.48
2019-05-30T10:36:27.108Z,100523.48
2019-05-30T10:38:59.965Z,100508.31
2019-05-30T10:41:28.093Z,100508.31
2019-05-30T10:43:57.761Z,100501.60
2019-05-30T10:46:25.560Z,100503.88
2019-05-30T10:48:54.527Z,100505.52
2019-05-30T10:51:22.519Z,100499.03
2019-05-30T10:53:50.864Z,100502.48
2019-05-30T10:56:19.972Z,100510.01
2019-05-30T10:58:48.298Z,100512.05
2019-05-30T11:01:16.162Z,100510.47
2019-05-30T11:03:43.882Z,100522.24
2019-05-30T11:06:14.201Z,100523.85
2019-05-30T11:08:46.141Z,100522.70
2019-05-30T11:11:14.397Z,100530.68
2019-05-30T11:13:43.416Z,100542.37
2019-05-30T11:16:16.133Z,100542.37
2019-05-30T11:18:43.911Z,100535.05
2019-05-30T11:21:11.706Z,100531.84
2019-05-30T11:23:39.437Z,100533.02
2019-05-30T11:26:10.357Z,100539.45
2019-05-30T11:28:38.386Z,100539.45
2019-05-30T11:31:07.872Z,100549.23
2019-05-30T11:33:35.647Z,100544.66
2019-05-30T11:36:03.359Z,100536.39
2019-05-30T11:38:32.277Z,100543.42
2019-05-30T11:41:00.388Z,100543.42
2019-05-30T11:43:28.142Z,100545.55
2019-05-30T11:45:57.789Z,100545.55
2019-05-30T11:48:31.998Z,100551.42
2019-05-30T11:51:00.040Z,100559.80
2019-05-30T11:53:30.575Z,100559.80
2019-05-30T11:56:01.334Z,100559.43
2019-05-30T11:58:29.758Z,100556.35
2019-05-30T12:00:58.417Z,100563.73
2019-05-30T12:03:29.442Z,100563.73
2019-05-30T12:05:56.576Z,100564.91
2019-05-30T12:08:24.378Z,100567.19
2019-05-30T12:10:53.078Z,100567.19
2019-05-30T12:13:23.894Z,100569.69
2019-05-30T12:15:53.856Z,100564.16
2019-05-30T12:18:25.283Z,100564.16
2019-05-30T12:20:53.616Z,100566.39
2019-05-30T12:23:21.359Z,100560.19
2019-05-30T12:25:49.134Z,100562.70
2019-05-30T12:28:18.641Z,100563.39
2019-05-30T12:30:56.734Z,100560.53
2019-05-30T12:33:18.853Z,100558.69
2019-05-30T12:35:46.571Z,100558.00
2019-05-30T12:38:14.362Z,100558.00
2019-05-30T12:40:42.083Z,100558.19
2019-05-30T12:43:12.022Z,100551.77
2019-05-30T12:45:39.416Z,100560.36
2019-05-30T12:48:07.540Z,100564.95
2019-05-30T12:50:42.090Z,100566.16
2019-05-30T12:53:13.581Z,100572.72
2019-05-30T12:55:41.329Z,100572.72
2019-05-30T12:58:09.110Z,100576.61
2019-05-30T13:00:37.216Z,100576.59
2019-05-30T13:03:07.404Z,100577.93
2019-05-30T13:05:35.807Z,100578.58
2019-05-30T13:08:17.681Z,100580.92
2019-05-30T13:10:35.925Z,100580.53
2019-05-30T13:13:04.056Z,100580.69
2019-05-30T13:15:31.899Z,100580.69
2019-05-30T13:18:00.922Z,100582.86
2019-05-30T13:20:28.784Z,100583.20
2019-05-30T13:22:58.572Z,100588.23
2019-05-30T13:25:27.604Z,100592.81
2019-05-30T13:27:55.777Z,100589.92
2019-05-30T13:30:23.636Z,100588.53
2019-05-30T13:32:51.886Z,100591.91
2019-05-30T13:35:21.274Z,100594.20
2019-05-30T13:37:49.055Z,100594.20
2019-05-30T13:40:25.351Z,100589.09
2019-05-30T13:42:52.034Z,100588.72
2019-05-30T13:45:19.942Z,100591.08
2019-05-30T13:47:50.567Z,100593.09
2019-05-30T13:50:21.009Z,100585.97
2019-05-30T13:52:51.488Z,100589.05
2019-05-30T13:55:29.677Z,100585.34
2019-05-30T13:57:57.509Z,100581.97
2019-05-30T14:00:28.388Z,100582.45
2019-05-30T14:02:56.127Z,100588.03
2019-05-30T14:05:25.574Z,100590.36
2019-05-30T14:07:57.435Z,100586.27
2019-05-30T14:10:28.411Z,100590.16
2019-05-30T14:12:56.142Z,100591.31
2019-05-30T14:15:24.248Z,100592.63
2019-05-30T14:18:01.145Z,100600.86
2019-05-30T14:20:30.159Z,100600.86
2019-05-30T14:23:03.286Z,100605.71
2019-05-30T14:25:31.528Z,100605.71
2019-05-30T14:27:59.331Z,100609.71
2019-05-30T14:30:27.141Z,100612.41
2019-05-30T14:32:55.218Z,100610.72
2019-05-30T14:35:23.083Z,100611.88
2019-05-30T14:37:50.869Z,100611.88
2019-05-30T14:40:18.650Z,100609.66
2019-05-30T14:42:48.072Z,100613.36
2019-05-30T14:45:16.810Z,100623.09
2019-05-30T14:47:44.757Z,100620.72
2019-05-30T14:50:14.354Z,100622.06
2019-05-30T14:52:42.185Z,100616.45
2019-05-30T14:55:10.982Z,100618.62
2019-05-30T14:57:41.837Z,100619.42
2019-05-30T15:00:17.644Z,100621.95
2019-05-30T15:02:45.736Z,100631.44
2019-05-30T15:05:13.989Z,100625.90
2019-05-30T15:07:41.722Z,100633.80
2019-05-30T15:10:10.620Z,100631.09
2019-05-30T15:12:38.457Z,100629.06
2019-05-30T15:15:07.935Z,100630.22
2019-05-30T15:17:35.625Z,100629.16
2019-05-30T15:20:03.336Z,100618.20
2019-05-30T15:22:31.145Z,100624.97
2019-05-30T15:25:01.139Z,100616.87
2019-05-30T15:27:30.391Z,100617.61
2019-05-30T15:30:02.569Z,100608.11
2019-05-30T15:32:30.368Z,100614.15
2019-05-30T15:35:02.563Z,100613.20
2019-05-30T15:37:30.379Z,100609.63
2019-05-30T15:39:58.310Z,100611.52
2019-05-30T15:42:26.023Z,100611.52
2019-05-30T15:44:54.168Z,100606.31
2019-05-30T15:47:23.869Z,100608.49
2019-05-30T15:49:52.274Z,100610.55
2019-05-30T15:52:23.509Z,100610.55
2019-05-30T15:54:51.318Z,100610.98
2019-05-30T15:57:22.237Z,100610.98
2019-05-30T15:59:50.298Z,100611.02
2019-05-30T16:02:18.250Z,100611.02
2019-05-30T16:04:46.603Z,100606.33
2019-05-30T16:07:14.666Z,100606.33
2019-05-30T16:09:47.139Z,100600.29
2019-05-30T16:12:17.142Z,100598.31
2019-05-30T16:14:47.325Z,100595.89
2019-05-30T16:17:15.804Z,100601.12
2019-05-30T16:19:45.896Z,100596.23
2019-05-30T16:22:31.190Z,100595.20
2019-05-30T16:24:58.993Z,100589.34
2019-05-30T16:27:26.774Z,100586.64
2019-05-30T16:29:55.568Z,100587.83
2019-05-30T16:32:24.353Z,100589.20
2019-05-30T16:34:53.665Z,100586.99
2019-05-30T16:37:22.268Z,100584.98
2019-05-30T16:40:05.402Z,100584.98
2019-05-30T16:42:22.295Z,100588.54
2019-05-30T16:44:50.154Z,100586.85
2019-05-30T16:47:18.415Z,100588.86
2019-05-30T16:49:46.149Z,100586.67
2019-05-30T16:52:16.757Z,100583.78
2019-05-30T16:54:44.492Z,100584.12
2019-05-30T16:57:18.451Z,100586.34
2019-05-30T16:59:46.292Z,100586.34
2019-05-30T17:02:16.936Z,100575.34
2019-05-30T17:04:46.068Z,100574.66
2019-05-30T17:07:17.041Z,100577.02
2019-05-30T17:09:44.828Z,100579.38
2019-05-30T17:12:17.324Z,100575.85
2019-05-30T17:14:44.567Z,100581.40
2019-05-30T17:17:18.102Z,100580.33
2019-05-30T17:19:45.957Z,100579.34
2019-05-30T17:22:13.740Z,100574.08
2019-05-30T17:24:41.513Z,100569.19
2019-05-30T17:27:12.225Z,100571.55
2019-05-30T17:29:41.004Z,100574.05
2019-05-30T17:32:11.525Z,100574.05
2019-05-30T17:34:39.326Z,100574.34
2019-05-30T17:37:08.393Z,100574.34
2019-05-30T17:39:37.490Z,100570.45
2019-05-30T17:42:05.145Z,100570.45
2019-05-30T17:44:35.108Z,100575.00
2019-05-30T17:47:03.208Z,100575.00
2019-05-30T17:49:32.772Z,100570.11
2019-05-30T17:52:01.858Z,100570.11
2019-05-30T17:54:32.478Z,100572.48
2019-05-30T17:57:00.166Z,100574.97
2019-05-30T17:59:32.131Z,100574.97
2019-05-30T18:02:07.449Z,100573.47
2019-05-30T18:04:58.733Z,100576.48
2019-05-30T18:07:29.092Z,100569.73
2019-05-30T18:10:03.263Z,100564.44
2019-05-30T18:12:31.229Z,100564.44
2019-05-30T18:15:00.371Z,100566.16
2019-05-30T18:17:29.202Z,100559.56
2019-05-30T18:19:59.728Z,100560.05
2019-05-30T18:22:27.615Z,100557.35
2019-05-30T18:24:59.315Z,100565.61
2019-05-30T18:27:28.043Z,100564.23
2019-05-30T18:29:58.408Z,100563.70
2019-05-30T18:32:26.202Z,100565.50
2019-05-30T18:34:57.251Z,100576.98
2019-05-30T18:37:24.263Z,100576.98
2019-05-30T18:39:52.064Z,100568.84
2019-05-30T18:42:20.247Z,100575.74
2019-05-30T18:44:47.964Z,100580.98
2019-05-30T18:47:16.731Z,100573.71
2019-05-30T18:49:44.829Z,100582.30
2019-05-30T18:52:16.772Z,100581.97
2019-05-30T18:54:43.188Z,100582.63
2019-05-30T18:57:10.988Z,100588.67
2019-05-30T18:59:38.719Z,100586.98
2019-05-30T19:02:11.131Z,100585.45
2019-05-30T19:04:38.844Z,100602.31
2019-05-30T19:07:06.648Z,100594.89
2019-05-30T19:09:37.564Z,100594.89
2019-05-30T19:12:06.716Z,100600.61
2019-05-30T19:14:37.432Z,100600.61
2019-05-30T19:17:08.624Z,100599.71
2019-05-30T19:19:36.646Z,100599.71
2019-05-30T19:22:04.433Z,100599.84
2019-05-30T19:24:32.206Z,100599.84
2019-05-30T19:27:01.701Z,100603.02
2019-05-30T19:29:31.069Z,100603.02
2019-05-30T19:31:58.846Z,100612.28
2019-05-30T19:34:26.665Z,100612.61
2019-05-30T19:36:55.457Z,100622.52
2019-05-30T19:39:27.302Z,100618.77
2019-05-30T19:41:59.002Z,100628.53
2019-05-30T19:44:27.771Z,100625.79
2019-05-30T19:46:57.447Z,100631.51
2019-05-30T19:49:25.287Z,100625.77
2019-05-30T19:51:55.979Z,100626.44
2019-05-30T19:54:23.720Z,100632.32
2019-05-30T19:56:51.512Z,100628.94
2019-05-30T19:59:20.013Z,100636.37
2019-05-30T20:01:47.813Z,100630.77
2019-05-30T20:04:15.534Z,100640.22
2019-05-30T20:06:43.308Z,100636.17
2019-05-30T20:09:11.035Z,100631.30
2019-05-30T20:11:39.373Z,100627.88
2019-05-30T20:14:07.171Z,100634.80
2019-05-30T20:16:35.726Z,100642.89
2019-05-30T20:19:05.944Z,100639.33
2019-05-30T20:21:33.740Z,100641.83
2019-05-30T20:24:01.489Z,100642.35
2019-05-30T20:26:29.217Z,100636.77
2019-05-30T20:29:01.064Z,100635.73
2019-05-30T20:31:31.365Z,100639.20
2019-05-30T20:33:59.110Z,100646.44
2019-05-30T20:36:29.159Z,100641.36
2019-05-30T20:38:58.346Z,100646.03
2019-05-30T20:41:27.285Z,100646.03
2019-05-30T20:43:57.775Z,100647.38
2019-05-30T20:46:30.433Z,100659.52
2019-05-30T20:48:58.526Z,100659.52
2019-05-30T20:51:26.338Z,100655.59
2019-05-30T20:53:54.885Z,100655.59
2019-05-30T20:56:25.314Z,100661.30
2019-05-30T20:58:56.056Z,100662.45
2019-05-30T21:01:26.126Z,100664.08
2019-05-30T21:03:54.493Z,100662.70
2019-05-30T21:06:22.352Z,100669.38
2019-05-30T21:08:50.226Z,100679.80
2019-05-30T21:11:26.103Z,100678.91
2019-05-30T21:13:54.149Z,100676.00
2019-05-30T21:16:25.913Z,100679.95
2019-05-30T21:18:53.747Z,100685.03
2019-05-30T21:21:22.043Z,100685.03
2019-05-30T21:23:52.651Z,100691.08
2019-05-30T21:26:23.486Z,100694.56
2019-05-30T21:28:54.460Z,100694.50
2019-05-30T21:31:23.397Z,100702.68
2019-05-30T21:33:53.461Z,100700.09
2019-05-30T21:36:27.975Z,100697.20
2019-05-30T21:38:54.654Z,100702.14
2019-05-30T21:41:22.638Z,100702.14
2019-05-30T21:43:50.406Z,100696.84
2019-05-30T21:46:18.183Z,100708.06
2019-05-30T21:48:46.976Z,100702.86
2019-05-30T21:51:18.115Z,100704.34
2019-05-30T21:53:45.843Z,100704.34
2019-05-30T21:56:13.619Z,100704.26
2019-05-30T21:58:42.135Z,100708.11
2019-05-30T22:01:10.047Z,100707.03
2019-05-30T22:03:37.766Z,100704.65
2019-05-30T22:06:05.663Z,100701.87
2019-05-30T22:08:33.402Z,100701.66
2019-05-30T22:11:01.531Z,100701.09
2019-05-30T22:13:29.777Z,100707.64
2019-05-30T22:15:57.596Z,100700.19
2019-05-30T22:18:28.164Z,100700.19
2019-05-30T22:20:55.883Z,100703.30
2019-05-30T22:23:23.748Z,100704.60
2019-05-30T22:25:53.404Z,100704.60
2019-05-30T22:28:21.162Z,100704.25
2019-05-30T22:30:52.826Z,100697.92
2019-05-30T22:33:20.889Z,100697.92
2019-05-30T22:35:48.947Z,100698.92
2019-05-30T22:38:21.956Z,100704.08
2019-05-30T22:40:49.953Z,100703.38
2019-05-30T22:43:25.378Z,100705.02
2019-05-30T22:45:48.207Z,100704.33
2019-05-30T22:48:16.317Z,100703.76
2019-05-30T22:50:44.587Z,100698.16
2019-05-30T22:53:12.845Z,100695.73
2019-05-30T22:55:41.117Z,100692.64
2019-05-30T22:58:08.987Z,100692.64
2019-05-30T23:00:40.222Z,100695.11
2019-05-30T23:03:08.628Z,100692.90
2019-05-30T23:05:38.799Z,100695.94
2019-05-30T23:08:06.693Z,100688.52
2019-05-30T23:10:35.749Z,100689.03
2019-05-30T23:13:06.132Z,100681.45
2019-05-30T23:15:33.991Z,100676.77
2019-05-30T23:18:01.834Z,100665.89
2019-05-30T23:20:32.692Z,100675.38
2019-05-30T23:23:00.554Z,100680.94
2019-05-30T23:25:28.430Z,100681.25
2019-05-30T23:27:56.288Z,100681.25
2019-05-30T23:30:28.185Z,100686.20
2019-05-30T23:32:56.367Z,100684.77
2019-05-30T23:35:24.202Z,100679.31
2019-05-30T23:37:54.680Z,100679.74
2019-05-30T23:40:26.377Z,100683.69
2019-05-30T23:42:57.253Z,100681.56
2019-05-30T23:45:27.948Z,100675.41
2019-05-30T23:47:55.800Z,100680.34
2019-05-30T23:50:23.567Z,100676.05
2019-05-30T23:52:58.230Z,100676.44
2019-05-30T23:55:26.051Z,100677.52
2019-05-30T23:57:54.615Z,100677.08
